Time;durP1;ratioP1;P1;durP2;ratioP2;P2;SDS_P1;SDS_P2;PMS_P1;PMS_P2;Temp;Humidity;BMP_temperature;BMP_pressure;BME280_temperature;BME280_humidity;BME280_pressure;Samples;Min_cycle;Max_cycle;Signal;HPM_P1;HPM_P2
2021/12/28 00:06:06;;;;;;;83.40;40.80;;;;;;;-5.26;84.96;98002.48;422766;1306;109253;-40
2021/12/28 00:16:28;;;;;;;63.80;30.40;;;;;;;-5.19;84.85;98002.88;422394;1306;97976;-40
2021/12/28 00:26:32;;;;;;;68.90;32.60;;;;;;;-5.13;85.00;98007.51;422659;1306;111320;-39
2021/12/28 00:36:36;;;;;;;64.70;30.90;;;;;;;-5.10;85.14;98010.44;422537;1306;108811;-40
2021/12/28 00:46:39;;;;;;;71.00;34.00;;;;;;;-5.04;85.08;98004.02;422457;1306;97966;-40
2021/12/28 00:56:43;;;;;;;69.70;32.60;;;;;;;-4.99;85.13;97998.19;422736;1306;108909;-40
2021/12/28 01:06:47;;;;;;;72.10;33.20;;;;;;;-4.94;85.18;97990.70;422560;1306;97575;-40
2021/12/28 01:16:51;;;;;;;64.90;32.60;;;;;;;-4.90;85.14;97971.21;422556;1306;111208;-39
2021/12/28 01:26:55;;;;;;;60.30;29.40;;;;;;;-4.90;85.10;97959.06;422695;1306;108948;-39
2021/12/28 01:36:58;;;;;;;81.50;37.30;;;;;;;-4.98;85.04;97965.97;422520;1306;98626;-40
2021/12/28 01:47:04;;;;;;;89.70;37.00;;;;;;;-5.02;85.30;97956.27;422674;1306;108755;-39
2021/12/28 01:57:08;;;;;;;54.20;29.30;;;;;;;-5.01;85.31;97953.15;422538;1306;97959;-39
2021/12/28 02:07:11;;;;;;;57.30;29.40;;;;;;;-4.98;85.38;97948.44;422739;1306;111967;-40
2021/12/28 02:17:15;;;;;;;58.60;27.50;;;;;;;-4.93;85.43;97932.58;423472;1293;109508;-39
2021/12/28 02:27:19;;;;;;;52.60;25.50;;;;;;;-4.91;85.38;97929.04;422113;1312;98484;-40
2021/12/28 02:37:24;;;;;;;64.40;31.40;;;;;;;-4.87;85.43;97919.08;422499;1307;109048;-40
2021/12/28 02:47:30;;;;;;;67.10;34.20;;;;;;;-4.87;85.32;97913.34;421989;1314;97957;-40
2021/12/28 02:57:34;;;;;;;50.50;30.20;;;;;;;-4.91;85.28;97912.44;422454;1309;111848;-39
2021/12/28 03:07:38;;;;;;;55.00;26.70;;;;;;;-4.94;85.40;97910.95;422230;1312;106867;-40
2021/12/28 03:17:42;;;;;;;60.90;29.00;;;;;;;-4.91;85.27;97910.19;422597;1312;97936;-40
2021/12/28 03:27:47;;;;;;;61.00;31.00;;;;;;;-4.91;85.31;97910.67;422629;1308;108963;-39
2021/12/28 03:37:50;;;;;;;47.80;22.80;;;;;;;-4.96;85.22;97902.14;422742;1306;97933;-39
2021/12/28 03:47:54;;;;;;;54.80;27.50;;;;;;;-5.04;85.27;97898.80;422318;1308;111319;-39
2021/12/28 03:58:00;;;;;;;59.00;24.70;;;;;;;-5.11;85.28;97909.02;422500;1312;108033;-39
2021/12/28 04:08:05;;;;;;;51.20;25.10;;;;;;;-5.20;85.22;97909.69;422290;1308;98063;-39
2021/12/28 04:18:09;;;;;;;49.40;26.30;;;;;;;-5.27;85.17;97909.81;422485;1309;108400;-41
2021/12/28 04:28:13;;;;;;;53.50;26.10;;;;;;;-5.27;85.46;97911.90;422384;1307;97144;-40
2021/12/28 04:38:17;;;;;;;55.30;27.60;;;;;;;-5.29;85.45;97904.16;422367;1312;109643;-40
2021/12/28 04:48:21;;;;;;;118.70;48.80;;;;;;;-5.30;85.36;97899.97;422396;1312;108937;-39
2021/12/28 04:58:25;;;;;;;53.00;26.50;;;;;;;-5.29;85.40;97898.81;422406;1308;98000;-39
2021/12/28 05:08:29;;;;;;;56.80;28.80;;;;;;;-5.28;85.37;97898.56;422668;1307;109221;-40
2021/12/28 05:18:32;;;;;;;46.00;26.40;;;;;;;-5.30;85.40;97888.30;422034;1307;97947;-39
2021/12/28 05:38:43;;;;;;;53.60;27.20;;;;;;;-5.38;85.39;97867.50;422313;1309;108957;-39
2021/12/28 05:58:54;;;;;;;56.50;27.90;;;;;;;-5.36;85.43;97856.60;422321;1307;108827;-39
2021/12/28 06:08:58;;;;;;;56.50;27.10;;;;;;;-5.35;85.61;97861.21;422097;1311;97951;-39
2021/12/28 06:19:03;;;;;;;56.90;28.50;;;;;;;-5.32;85.59;97864.08;422451;1308;111172;-40
2021/12/28 06:29:07;;;;;;;50.00;25.90;;;;;;;-5.28;85.77;97870.23;421841;1309;108734;-40
2021/12/28 06:39:12;;;;;;;77.70;33.20;;;;;;;-5.24;85.89;97874.83;422778;1306;97958;-40
2021/12/28 06:49:19;;;;;;;55.50;29.10;;;;;;;-5.20;85.89;97862.95;422338;1309;108942;-40
2021/12/28 06:59:24;;;;;;;70.90;32.50;;;;;;;-5.16;85.91;97869.75;422753;1307;97977;-40
2021/12/28 07:09:27;;;;;;;68.50;29.70;;;;;;;-5.16;85.95;97878.73;417924;1307;5828338;-39
2021/12/28 07:19:31;;;;;;;67.20;28.90;;;;;;;-5.14;86.22;97885.97;422506;1306;109065;-39
2021/12/28 07:29:35;;;;;;;47.90;22.30;;;;;;;-5.11;86.28;97884.09;422197;1306;98025;-39
2021/12/28 07:39:42;;;;;;;55.40;26.00;;;;;;;-5.05;86.24;97878.66;422307;1307;108674;-40
2021/12/28 07:49:46;;;;;;;53.00;26.80;;;;;;;-5.00;86.39;97883.98;422475;1307;98027;-40
2021/12/28 07:59:49;;;;;;;47.70;26.20;;;;;;;-4.90;86.64;97880.48;422445;1306;113038;-40
2021/12/28 08:09:53;;;;;;;51.90;24.90;;;;;;;-4.80;86.58;97877.92;422278;1307;109145;-39
2021/12/28 08:20:00;;;;;;;54.90;27.10;;;;;;;-4.68;86.80;97858.02;422444;1306;98850;-39
2021/12/28 08:30:07;;;;;;;51.60;22.60;;;;;;;-4.53;86.64;97849.59;422034;1309;108985;-39
2021/12/28 08:40:14;;;;;;;61.10;27.30;;;;;;;-4.37;86.59;97848.54;421922;1309;99313;-39
2021/12/28 09:00:26;;;;;;;54.80;28.70;;;;;;;-4.11;86.73;97850.54;422255;1306;107859;-40
2021/12/28 09:10:30;;;;;;;59.10;28.20;;;;;;;-3.87;86.53;97839.13;421941;1308;99310;-40
2021/12/28 09:20:34;;;;;;;49.80;26.20;;;;;;;-3.67;86.58;97835.45;422678;1306;109017;-40
2021/12/28 09:30:44;;;;;;;53.00;25.30;;;;;;;-3.58;86.31;97823.35;422408;1306;99693;-39
2021/12/28 09:40:50;;;;;;;56.90;26.30;;;;;;;-3.55;86.32;97817.17;422366;1306;111362;-39
2021/12/28 09:50:54;;;;;;;50.60;26.30;;;;;;;-3.34;86.17;97809.07;422359;1306;109061;-41
2021/12/28 10:11:01;;;;;;;70.60;33.80;;;;;;;-2.77;85.98;97779.57;422554;1306;109585;-40
2021/12/28 10:21:10;;;;;;;;;;;;;;;-2.63;85.76;97765.23;422345;1309;99315;-40
2021/12/28 10:31:18;;;;;;;72.40;31.20;;;;;;;-2.57;85.54;97748.23;422131;1307;112465;-39
2021/12/28 10:41:22;;;;;;;56.30;27.10;;;;;;;-2.57;85.26;97743.49;422561;1307;109018;-40
2021/12/28 10:51:31;;;;;;;48.50;25.20;;;;;;;-2.57;84.71;97749.36;422557;1307;98035;-40
2021/12/28 11:01:42;;;;;;;72.40;33.30;;;;;;;-2.45;85.14;97748.39;422198;1306;111818;-40
2021/12/28 11:12:05;;;;;;;69.60;32.60;;;;;;;-2.50;84.70;97744.59;422513;1307;107805;-39
2021/12/28 11:22:11;;;;;;;88.30;40.40;;;;;;;-2.52;84.74;97731.38;422578;1306;99467;-40
2021/12/28 11:32:29;;;;;;;58.10;31.10;;;;;;;-2.40;84.68;97724.05;422292;1306;109306;-40
2021/12/28 11:42:33;;;;;;;60.20;30.10;;;;;;;-2.38;84.25;97709.69;422198;1306;99408;-40
2021/12/28 11:52:38;;;;;;;82.50;37.60;;;;;;;-2.36;84.42;97692.40;422457;1306;112617;-40
2021/12/28 12:02:47;;;;;;;83.40;38.40;;;;;;;-2.39;84.50;97672.31;422476;1307;99315;-40
2021/12/28 12:22:56;;;;;;;68.70;35.60;;;;;;;-2.37;83.75;97641.79;422461;1306;112634;-42
2021/12/28 12:33:14;;;;;;;78.70;40.30;;;;;;;-2.41;83.96;97637.34;422509;1306;107456;-40
2021/12/28 12:43:18;;;;;;;83.80;37.20;;;;;;;-2.57;83.99;97618.04;422427;1306;99942;-40
2021/12/28 12:53:45;;;;;;;73.60;35.60;;;;;;;-2.68;84.02;97613.83;422474;1309;108918;-40
2021/12/28 13:03:49;;;;;;;78.10;38.00;;;;;;;-2.77;83.73;97610.52;422659;1306;99003;-40
2021/12/28 13:13:56;;;;;;;120.30;51.70;;;;;;;-3.03;83.61;97601.02;422196;1306;112564;-40
2021/12/28 13:34:09;;;;;;;102.30;42.90;;;;;;;-3.57;84.05;97603.55;422467;1304;99296;-39
2021/12/28 13:44:12;;;;;;;62.10;33.30;;;;;;;-3.72;83.97;97604.15;422415;1306;110569;-40
2021/12/28 13:54:16;;;;;;;86.90;38.10;;;;;;;-3.74;84.22;97595.31;422568;1306;99295;-40
2021/12/28 14:04:20;;;;;;;95.60;43.20;;;;;;;-3.82;84.43;97590.12;422509;1306;112819;-40
2021/12/28 14:24:32;;;;;;;68.90;35.20;;;;;;;-4.06;84.58;97566.45;422551;1306;98440;-40
2021/12/28 14:44:43;;;;;;;115.70;52.40;;;;;;;-4.12;84.94;97578.38;422304;1309;107936;-40
2021/12/28 15:05:12;;;;;;;82.40;40.70;;;;;;;-4.31;84.97;97577.13;422306;1306;109230;-40
2021/12/28 15:15:18;;;;;;;67.70;36.40;;;;;;;-4.32;84.99;97567.02;419260;1306;3907178;-40
2021/12/28 15:25:26;;;;;;;88.60;39.20;;;;;;;-4.33;85.03;97562.34;422304;1309;112444;-40
2021/12/28 15:35:34;;;;;;;88.00;39.80;;;;;;;-4.42;85.08;97549.13;422106;1306;108918;-40
2021/12/28 15:45:40;;;;;;;90.90;42.50;;;;;;;-4.55;85.28;97531.32;422710;1306;99034;-40
2021/12/28 15:55:43;;;;;;;73.20;35.80;;;;;;;-4.57;85.17;97521.27;422211;1306;112701;-39
2021/12/28 16:05:50;;;;;;;75.30;34.40;;;;;;;-4.53;85.13;97512.87;421871;1308;108889;-40
2021/12/28 16:15:54;;;;;;;62.40;33.90;;;;;;;-4.50;85.22;97503.62;422353;1309;99321;-39
2021/12/28 16:25:58;;;;;;;95.70;44.40;;;;;;;-4.56;85.25;97502.52;422160;1306;109540;-41
2021/12/28 16:36:06;;;;;;;88.90;39.10;;;;;;;-4.71;85.43;97503.05;422561;1306;99423;-40
2021/12/28 16:46:10;;;;;;;100.10;42.30;;;;;;;-4.84;85.47;97515.45;422434;1306;99337;-40
2021/12/28 16:56:14;;;;;;;117.70;52.40;;;;;;;-4.95;85.48;97524.68;422468;1306;108939;-42
2021/12/28 17:06:22;;;;;;;120.40;58.80;;;;;;;-5.02;85.24;97527.15;422092;1306;99306;-40
2021/12/28 17:16:26;;;;;;;97.50;51.00;;;;;;;-5.06;85.17;97519.38;422439;1306;112426;-40
2021/12/28 17:26:30;;;;;;;131.30;57.70;;;;;;;-5.07;85.28;97511.78;422148;1306;109064;-39
2021/12/28 17:36:34;;;;;;;176.30;71.70;;;;;;;-5.18;85.34;97510.93;422498;1306;99942;-40
2021/12/28 17:46:38;;;;;;;215.10;86.60;;;;;;;-5.33;85.23;97498.87;422364;1306;99328;-40
2021/12/28 17:56:42;;;;;;;224.50;83.40;;;;;;;-5.56;85.16;97495.36;422446;1306;107703;-39
2021/12/28 18:06:45;;;;;;;154.40;76.50;;;;;;;-5.73;85.03;97487.18;422202;1306;99192;-40
2021/12/28 18:16:49;;;;;;;137.00;71.90;;;;;;;-5.79;85.21;97480.76;422465;1306;109025;-40
2021/12/28 18:26:54;;;;;;;130.10;63.00;;;;;;;-5.76;85.11;97469.30;422260;1306;99193;-40
2021/12/28 18:36:58;;;;;;;121.40;63.80;;;;;;;-5.71;85.43;97450.05;422405;1306;111431;-39
2021/12/28 18:47:02;;;;;;;118.40;59.80;;;;;;;-5.54;85.54;97437.52;422365;1309;109402;-39
2021/12/28 18:57:10;;;;;;;109.90;58.80;;;;;;;-5.40;85.57;97433.80;422453;1306;99280;-40
2021/12/28 19:07:15;;;;;;;117.60;64.80;;;;;;;-5.28;85.51;97420.90;422496;1306;107167;-40
2021/12/28 19:17:18;;;;;;;106.40;55.50;;;;;;;-5.29;85.52;97410.63;422624;1306;99469;-40
2021/12/28 19:27:22;;;;;;;92.50;50.70;;;;;;;-5.26;85.58;97420.84;422201;1306;112237;-39
2021/12/28 19:37:25;;;;;;;102.90;53.70;;;;;;;-5.24;85.50;97420.64;422338;1306;108866;-40
2021/12/28 19:47:29;;;;;;;95.10;52.40;;;;;;;-5.20;85.56;97413.58;422380;1307;99384;-40
2021/12/28 19:57:33;;;;;;;109.70;58.40;;;;;;;-5.23;85.50;97407.63;422322;1309;108578;-39
2021/12/28 20:07:38;;;;;;;110.60;55.40;;;;;;;-5.29;85.43;97398.25;422381;1309;99565;-40
2021/12/28 20:17:42;;;;;;;128.70;62.60;;;;;;;-5.32;85.49;97383.64;422145;1309;112517;-41
2021/12/28 20:27:48;;;;;;;101.50;51.00;;;;;;;-5.36;85.53;97374.73;422368;1307;106745;-40
2021/12/28 20:37:51;;;;;;;89.40;45.40;;;;;;;-5.35;85.66;97388.27;422386;1306;98897;-40
2021/12/28 20:47:55;;;;;;;83.90;43.90;;;;;;;-5.29;85.67;97383.70;422151;1306;108842;-41
2021/12/28 21:08:08;;;;;;;74.20;35.90;;;;;;;-5.26;85.72;97364.98;422234;1306;112451;-39
2021/12/28 21:18:12;;;;;;;76.00;38.20;;;;;;;-5.22;85.84;97349.14;422505;1309;107301;-40
2021/12/28 21:28:15;;;;;;;65.40;36.00;;;;;;;-5.16;85.96;97348.52;422338;1306;99263;-39
2021/12/28 21:38:21;;;;;;;71.40;37.20;;;;;;;-5.12;85.69;97339.84;422355;1306;109297;-41
2021/12/28 21:48:28;;;;;;;76.20;40.10;;;;;;;-5.05;86.05;97327.23;422562;1306;99309;-39
2021/12/28 21:58:32;;;;;;;89.70;40.80;;;;;;;-4.95;86.13;97327.58;422471;1307;110770;-40
2021/12/28 22:08:36;;;;;;;88.40;41.50;;;;;;;-4.85;86.17;97311.83;422268;1307;108915;-40
2021/12/28 22:18:39;;;;;;;83.50;43.60;;;;;;;-4.71;86.10;97312.63;422487;1306;99270;-41
2021/12/28 22:28:44;;;;;;;85.70;47.20;;;;;;;-4.60;86.17;97320.48;422339;1306;108891;-42
2021/12/28 22:38:51;;;;;;;99.90;47.90;;;;;;;-4.53;86.14;97311.69;422374;1306;99330;-40
2021/12/28 22:48:54;;;;;;;79.90;44.60;;;;;;;-4.49;86.07;97304.88;422486;1306;112962;-39
2021/12/28 22:58:58;;;;;;;103.20;50.60;;;;;;;-4.43;86.09;97311.18;422446;1306;109062;-40
2021/12/28 23:09:03;;;;;;;79.00;41.30;;;;;;;-4.29;86.00;97320.05;418454;1306;5722649;-40
2021/12/28 23:19:07;;;;;;;72.40;36.90;;;;;;;-4.30;85.98;97327.17;422509;1312;109892;-39
2021/12/28 23:29:11;;;;;;;71.90;34.70;;;;;;;-4.23;86.06;97333.30;422502;1306;99197;-40
2021/12/28 23:39:17;;;;;;;70.40;36.80;;;;;;;-4.14;86.25;97337.70;422631;1308;112500;-39
2021/12/28 23:49:22;;;;;;;75.10;36.90;;;;;;;-4.06;86.12;97339.42;422189;1309;109396;-40
2021/12/28 23:59:26;;;;;;;89.90;46.50;;;;;;;-3.95;86.12;97335.74;422234;1309;98534;-41
